Time;durP1;ratioP1;P1;durP2;ratioP2;P2;SDS_P1;SDS_P2;PMS_P1;PMS_P2;Temp;Humidity;BMP_temperature;BMP_pressure;BME280_temperature;BME280_humidity;BME280_pressure;Samples;Min_cycle;Max_cycle;Signal;HPM_P1;HPM_P2
2021/03/13 00:00:46;;;;;;;41.03;4.80;;;3.90;99.90;;;;;;5013644;28;20132;-88
2021/03/13 00:03:12;;;;;;;49.92;4.75;;;3.90;99.90;;;;;;5026934;28;20417;-89
2021/03/13 00:05:41;;;;;;;51.13;4.80;;;4.00;99.90;;;;;;5028428;28;20072;-88
2021/03/13 00:08:08;;;;;;;52.30;4.60;;;4.00;99.90;;;;;;5045210;28;20045;-87
2021/03/13 00:10:35;;;;;;;43.55;5.38;;;4.10;99.90;;;;;;5016994;28;20695;-88
2021/03/13 00:13:02;;;;;;;30.80;4.35;;;4.10;99.90;;;;;;5015654;28;20081;-88
2021/03/13 00:15:28;;;;;;;47.90;5.25;;;4.10;99.90;;;;;;5027126;28;20095;-89
2021/03/13 00:17:57;;;;;;;34.05;5.47;;;4.20;99.90;;;;;;5045559;28;20497;-89
2021/03/13 00:20:25;;;;;;;33.72;4.80;;;4.20;99.90;;;;;;5028163;28;20049;-88
2021/03/13 00:22:53;;;;;;;42.00;6.05;;;4.20;99.90;;;;;;5028954;28;20041;-89
2021/03/13 00:25:19;;;;;;;39.88;6.30;;;4.20;99.90;;;;;;5028420;28;20041;-87
2021/03/13 00:27:46;;;;;;;54.58;7.22;;;4.20;99.90;;;;;;5045447;28;20413;-87
2021/03/13 00:30:21;;;;;;;52.53;7.47;;;4.30;99.90;;;;;;5028387;28;20052;-89
2021/03/13 00:32:53;;;;;;;47.50;5.63;;;4.30;99.90;;;;;;5044212;28;20091;-89
2021/03/13 00:35:20;;;;;;;47.33;6.57;;;4.40;99.90;;;;;;5028442;28;20045;-89
2021/03/13 00:37:48;;;;;;;44.05;6.57;;;4.30;99.90;;;;;;5012562;28;20045;-89
2021/03/13 00:40:15;;;;;;;42.33;5.75;;;4.30;99.90;;;;;;5029410;28;20045;-89
2021/03/13 00:42:42;;;;;;;49.35;5.97;;;4.30;99.90;;;;;;5046007;28;20103;-90
2021/03/13 00:45:10;;;;;;;41.08;6.20;;;4.40;99.90;;;;;;5046040;28;20042;-89
2021/03/13 00:47:36;;;;;;;48.75;6.05;;;4.40;99.90;;;;;;5028652;28;20121;-89
2021/03/13 00:50:04;;;;;;;35.28;5.57;;;4.40;99.90;;;;;;5046050;28;20144;-90
2021/03/13 00:52:30;;;;;;;40.92;6.43;;;4.40;99.90;;;;;;5028841;28;20072;-90
2021/03/13 00:54:57;;;;;;;53.35;7.57;;;4.40;99.90;;;;;;5043125;28;20053;-91
2021/03/13 00:57:23;;;;;;;54.28;6.50;;;4.40;99.90;;;;;;5045738;28;20057;-91
2021/03/13 00:59:49;;;;;;;52.95;6.55;;;4.40;99.90;;;;;;5028903;28;20545;-89
2021/03/13 01:02:15;;;;;;;43.03;6.78;;;4.50;99.90;;;;;;5041945;28;20099;-89
2021/03/13 01:04:41;;;;;;;36.50;7.20;;;4.50;99.90;;;;;;5028771;28;20037;-90
2021/03/13 01:07:07;;;;;;;50.72;7.35;;;4.60;99.90;;;;;;5029169;28;20115;-90
2021/03/13 01:09:32;;;;;;;36.03;7.10;;;4.50;99.90;;;;;;5041913;28;20467;-90
2021/03/13 01:11:58;;;;;;;46.28;7.35;;;4.50;99.90;;;;;;5035533;28;20103;-89
2021/03/13 01:14:25;;;;;;;41.15;5.63;;;4.50;99.90;;;;;;5028817;28;20497;-90
2021/03/13 01:16:51;;;;;;;40.22;6.53;;;4.60;99.90;;;;;;5029284;28;20048;-89
2021/03/13 01:19:17;;;;;;;32.90;5.15;;;4.60;99.90;;;;;;5029997;28;20049;-90
2021/03/13 01:21:43;;;;;;;50.03;7.63;;;4.60;99.90;;;;;;5025973;28;20596;-90
2021/03/13 01:24:09;;;;;;;34.13;5.75;;;4.80;99.90;;;;;;5020782;28;20132;-89
2021/03/13 01:26:36;;;;;;;41.22;5.95;;;4.60;99.90;;;;;;5043086;28;20456;-90
2021/03/13 01:29:02;;;;;;;41.03;6.97;;;4.60;99.90;;;;;;5028586;28;20053;-89
2021/03/13 01:31:27;;;;;;;41.05;7.93;;;4.60;99.90;;;;;;5028545;28;20046;-89
2021/03/13 01:33:53;;;;;;;34.38;6.65;;;4.60;99.90;;;;;;5016343;28;20508;-91
2021/03/13 01:36:19;;;;;;;36.53;6.57;;;4.70;99.90;;;;;;5008883;28;20046;-89
2021/03/13 01:38:45;;;;;;;27.65;5.47;;;4.70;99.90;;;;;;5044461;28;20041;-89
2021/03/13 01:41:11;;;;;;;36.80;5.90;;;4.70;99.90;;;;;;5028707;28;20072;-89
2021/03/13 01:43:38;;;;;;;38.42;6.55;;;4.70;99.90;;;;;;5027341;28;20049;-90
2021/03/13 01:46:04;;;;;;;35.63;5.80;;;4.70;99.90;;;;;;5041142;28;20046;-90
2021/03/13 01:48:36;;;;;;;31.40;5.70;;;4.80;99.90;;;;;;5044444;28;20045;-90
2021/03/13 01:51:06;;;;;;;35.80;6.40;;;4.70;99.90;;;;;;5028690;28;20136;-89
2021/03/13 01:53:32;;;;;;;33.47;5.25;;;4.80;99.90;;;;;;5028007;28;20060;-90
2021/03/13 01:55:58;;;;;;;41.15;6.07;;;4.80;99.90;;;;;;5021534;28;20498;-90
2021/03/13 01:58:24;;;;;;;25.40;5.35;;;4.80;99.90;;;;;;5021484;28;20058;-91
2021/03/13 02:00:50;;;;;;;28.42;6.43;;;4.80;99.90;;;;;;5028051;28;20644;-91
2021/03/13 02:03:17;;;;;;;39.35;6.53;;;4.90;99.90;;;;;;5028895;28;20045;-90
2021/03/13 02:05:46;;;;;;;35.75;5.95;;;4.80;99.90;;;;;;5023489;28;20119;-91
2021/03/13 02:08:22;;;;;;;31.35;6.30;;;4.70;99.90;;;;;;5029707;28;20041;-90
2021/03/13 02:11:03;;;;;;;44.25;6.63;;;4.80;99.90;;;;;;5042570;28;20045;-91
2021/03/13 02:13:40;;;;;;;38.88;5.90;;;4.80;99.90;;;;;;5044336;28;20048;-91
2021/03/13 02:16:18;;;;;;;30.13;6.40;;;4.80;99.90;;;;;;5028183;28;20046;-91
2021/03/13 02:19:05;;;;;;;30.33;6.95;;;4.80;99.90;;;;;;5032656;28;20437;-91
2021/03/13 02:21:43;;;;;;;40.78;6.40;;;4.80;99.90;;;;;;5030055;28;20045;-91
2021/03/13 02:24:52;;;;;;;34.20;6.85;;;4.80;99.90;;;;;;5028575;28;20039;-92
2021/03/13 02:28:01;;;;;;;26.13;5.70;;;4.70;99.90;;;;;;4965824;28;20058;-91
2021/03/13 02:30:28;;;;;;;39.40;7.03;;;4.70;99.90;;;;;;5014577;28;20064;-92
2021/03/13 02:33:19;;;;;;;33.72;6.53;;;4.60;99.90;;;;;;5028544;28;20764;-91
2021/03/13 02:35:49;;;;;;;34.35;6.60;;;4.60;99.90;;;;;;5031189;28;20045;-90
2021/03/13 02:38:23;;;;;;;25.98;7.10;;;4.70;99.90;;;;;;5018888;28;20061;-88
2021/03/13 02:40:50;;;;;;;41.53;7.32;;;4.70;99.90;;;;;;5031274;28;20057;-90
2021/03/13 02:43:20;;;;;;;30.20;6.55;;;4.70;99.90;;;;;;5045746;28;20042;-90
2021/03/13 02:45:49;;;;;;;37.55;6.30;;;4.70;99.90;;;;;;5030464;28;20056;-89
2021/03/13 02:48:20;;;;;;;35.93;7.87;;;4.70;99.90;;;;;;5047271;28;20053;-89
2021/03/13 02:50:47;;;;;;;29.50;6.38;;;4.80;99.90;;;;;;5030416;28;20072;-90
2021/03/13 02:53:16;;;;;;;29.63;6.07;;;4.80;99.90;;;;;;5030582;28;20046;-90
2021/03/13 02:55:43;;;;;;;32.72;6.78;;;4.90;99.90;;;;;;5024176;28;20042;-90
2021/03/13 02:58:11;;;;;;;26.10;5.90;;;5.20;99.90;;;;;;5024932;28;20041;-91
2021/03/13 03:00:39;;;;;;;28.05;6.05;;;4.90;99.90;;;;;;5030298;28;20033;-90
2021/03/13 03:03:05;;;;;;;19.92;5.35;;;5.00;99.90;;;;;;5045429;28;20095;-90
2021/03/13 03:05:33;;;;;;;24.50;5.75;;;5.00;99.90;;;;;;5047786;28;20061;-90
2021/03/13 03:08:05;;;;;;;28.92;5.68;;;5.20;99.90;;;;;;5031476;28;20410;-91
2021/03/13 03:10:34;;;;;;;38.42;6.28;;;5.00;99.90;;;;;;5028184;28;20049;-91
2021/03/13 03:13:01;;;;;;;29.83;6.63;;;5.00;99.90;;;;;;5026443;28;20046;-90
2021/03/13 03:15:30;;;;;;;32.08;6.45;;;5.10;99.90;;;;;;5023505;28;20128;-91
2021/03/13 03:18:10;;;;;;;27.45;6.55;;;5.10;99.90;;;;;;5029789;28;20107;-91
2021/03/13 03:20:36;;;;;;;33.07;6.73;;;5.10;99.90;;;;;;5030595;28;20509;-89
2021/03/13 03:23:05;;;;;;;26.00;7.28;;;5.10;99.90;;;;;;5030870;28;20444;-91
2021/03/13 03:25:31;;;;;;;29.98;5.00;;;5.20;99.90;;;;;;5011176;28;20053;-90
2021/03/13 03:27:58;;;;;;;22.60;5.50;;;5.20;99.90;;;;;;5026917;28;20103;-89
2021/03/13 03:30:27;;;;;;;28.80;5.30;;;5.20;99.90;;;;;;5029815;28;20049;-89
2021/03/13 03:32:54;;;;;;;23.02;5.80;;;5.30;99.90;;;;;;5030117;28;20054;-91
2021/03/13 03:35:22;;;;;;;21.88;5.43;;;5.30;99.90;;;;;;5030176;28;20041;-90
2021/03/13 03:37:49;;;;;;;16.95;4.47;;;5.30;99.90;;;;;;5045399;28;20115;-92
2021/03/13 03:40:16;;;;;;;26.25;5.40;;;5.30;99.90;;;;;;5030303;28;20123;-91
2021/03/13 03:43:14;;;;;;;20.42;5.28;;;5.40;99.90;;;;;;5045491;28;20477;-91
2021/03/13 03:45:42;;;;;;;22.10;4.95;;;5.50;99.90;;;;;;5024846;28;20132;-91
2021/03/13 03:48:14;;;;;;;26.27;4.90;;;5.50;99.90;;;;;;5013093;28;20393;-90
2021/03/13 03:50:43;;;;;;;16.98;4.65;;;5.50;99.90;;;;;;5029802;28;20047;-91
2021/03/13 03:53:14;;;;;;;17.88;4.65;;;5.50;99.90;;;;;;5034272;28;20100;-93
2021/03/13 03:55:46;;;;;;;25.48;4.80;;;5.50;99.90;;;;;;5031112;28;20114;-93
2021/03/13 03:58:15;;;;;;;22.33;5.72;;;5.50;99.90;;;;;;5012097;28;20077;-92
2021/03/13 04:00:44;;;;;;;22.83;4.90;;;5.40;99.90;;;;;;5025674;28;20134;-92
2021/03/13 04:03:13;;;;;;;17.75;4.53;;;5.40;99.90;;;;;;5024832;28;20137;-92
2021/03/13 04:05:42;;;;;;;18.52;4.28;;;5.40;99.90;;;;;;5028240;28;20141;-93
2021/03/13 04:08:11;;;;;;;23.10;4.40;;;5.40;99.90;;;;;;5023528;28;20076;-92
2021/03/13 04:10:40;;;;;;;34.85;4.97;;;5.40;99.90;;;;;;5030058;28;20046;-92
2021/03/13 04:13:06;;;;;;;14.07;3.88;;;5.40;99.90;;;;;;4999062;28;20493;-91
2021/03/13 04:15:33;;;;;;;23.42;4.22;;;5.40;99.90;;;;;;4994674;28;20414;-92
2021/03/13 04:17:59;;;;;;;18.73;4.25;;;5.40;99.90;;;;;;5028572;28;20673;-91
2021/03/13 04:20:25;;;;;;;19.30;3.97;;;5.40;99.90;;;;;;5045300;28;20049;-93
2021/03/13 04:22:52;;;;;;;13.55;3.70;;;5.50;99.90;;;;;;5045411;28;20116;-93
2021/03/13 04:25:18;;;;;;;15.05;3.08;;;5.40;99.90;;;;;;5045588;28;20059;-91
2021/03/13 04:27:44;;;;;;;11.63;2.78;;;5.40;99.90;;;;;;5028529;28;20049;-93
2021/03/13 04:30:18;;;;;;;12.02;3.10;;;5.40;99.90;;;;;;5029237;28;20057;-91
2021/03/13 04:32:47;;;;;;;10.98;3.28;;;5.40;99.90;;;;;;5045089;28;20049;-93
2021/03/13 04:35:14;;;;;;;11.15;3.60;;;5.40;99.90;;;;;;5018030;28;20049;-93
2021/03/13 04:37:41;;;;;;;24.85;3.58;;;5.40;99.90;;;;;;5029304;28;20142;-90
2021/03/13 04:40:10;;;;;;;9.80;2.40;;;5.40;99.90;;;;;;5029000;28;20049;-94
2021/03/13 04:42:39;;;;;;;10.98;2.63;;;5.40;99.90;;;;;;5030401;28;20124;-93
2021/03/13 04:45:09;;;;;;;11.38;2.22;;;5.30;99.90;;;;;;5044668;28;20053;-92
2021/03/13 04:47:36;;;;;;;8.80;2.40;;;5.30;99.90;;;;;;5030365;28;20050;-94
2021/03/13 04:50:03;;;;;;;13.85;2.40;;;5.30;99.90;;;;;;5027841;28;20037;-93
2021/03/13 04:52:29;;;;;;;12.45;2.20;;;5.30;99.90;;;;;;5045998;28;20081;-93
2021/03/13 04:54:54;;;;;;;10.93;2.85;;;5.30;99.90;;;;;;5045083;28;20115;-93
2021/03/13 04:57:21;;;;;;;5.22;1.80;;;5.30;99.90;;;;;;5023536;28;20125;-94
2021/03/13 04:59:47;;;;;;;5.60;1.88;;;5.30;99.90;;;;;;5038418;28;20172;-93
2021/03/13 05:02:12;;;;;;;3.97;1.60;;;5.30;99.90;;;;;;5039634;28;20045;-95
2021/03/13 05:04:38;;;;;;;10.60;2.35;;;5.40;99.90;;;;;;5029293;28;20045;-93
2021/03/13 05:07:04;;;;;;;3.10;1.50;;;5.30;99.90;;;;;;5030917;28;20049;-93
2021/03/13 05:09:29;;;;;;;6.90;1.88;;;5.20;99.90;;;;;;5029108;28;20045;-92
2021/03/13 05:11:55;;;;;;;5.07;1.60;;;5.20;99.90;;;;;;5027844;28;20052;-92
2021/03/13 05:14:21;;;;;;;3.53;1.42;;;5.20;99.90;;;;;;5011812;28;20076;-92
2021/03/13 05:16:47;;;;;;;4.50;1.58;;;5.20;99.90;;;;;;5044007;28;20033;-90
2021/03/13 05:19:12;;;;;;;6.25;1.70;;;5.20;99.90;;;;;;5028114;28;20045;-92
2021/03/13 05:21:38;;;;;;;3.90;1.50;;;5.20;99.90;;;;;;5044543;28;20121;-91
2021/03/13 05:24:05;;;;;;;6.22;1.55;;;5.10;99.90;;;;;;5027603;28;20117;-92
2021/03/13 05:26:30;;;;;;;2.72;1.77;;;5.10;99.90;;;;;;5027746;28;20434;-92
2021/03/13 05:28:56;;;;;;;7.40;2.17;;;5.20;99.90;;;;;;5027547;28;20125;-92
2021/03/13 05:31:23;;;;;;;3.22;1.10;;;5.20;99.90;;;;;;5029419;28;20447;-93
2021/03/13 05:33:49;;;;;;;2.28;1.55;;;5.20;99.90;;;;;;5027484;28;20041;-90
2021/03/13 05:36:15;;;;;;;1.98;1.73;;;5.20;99.90;;;;;;5028535;28;20099;-90
2021/03/13 05:38:41;;;;;;;2.75;1.60;;;5.20;99.90;;;;;;5029433;28;20397;-92
2021/03/13 05:41:07;;;;;;;2.20;1.50;;;5.30;99.90;;;;;;5027292;28;20265;-91
2021/03/13 05:43:34;;;;;;;2.47;1.67;;;5.30;99.90;;;;;;5027776;28;20046;-90
2021/03/13 05:46:02;;;;;;;2.75;1.40;;;5.30;99.90;;;;;;5043118;28;20052;-93
2021/03/13 05:48:30;;;;;;;4.97;1.63;;;5.30;99.90;;;;;;5028170;28;20045;-92
2021/03/13 05:50:59;;;;;;;3.88;2.33;;;5.30;99.90;;;;;;5027313;28;20460;-93
2021/03/13 05:53:25;;;;;;;4.95;1.90;;;5.30;99.90;;;;;;5044540;28;20047;-94
2021/03/13 05:55:54;;;;;;;2.45;1.75;;;5.30;99.90;;;;;;5027362;28;20037;-92
2021/03/13 05:58:22;;;;;;;1.90;1.75;;;5.40;99.90;;;;;;5026325;28;20707;-92
2021/03/13 06:00:49;;;;;;;6.53;2.00;;;5.40;99.90;;;;;;5017738;28;20440;-91
2021/03/13 06:03:16;;;;;;;7.10;1.92;;;5.50;99.90;;;;;;5018827;28;20441;-93
2021/03/13 06:05:46;;;;;;;1.80;1.52;;;5.50;99.90;;;;;;5018446;28;20041;-91
2021/03/13 06:08:15;;;;;;;2.92;1.80;;;5.50;99.90;;;;;;5039478;28;20881;-93
2021/03/13 06:10:41;;;;;;;2.05;1.70;;;5.50;99.90;;;;;;5032361;28;20410;-94
2021/03/13 06:13:07;;;;;;;7.70;2.28;;;5.60;99.90;;;;;;5042102;28;20069;-93
2021/03/13 06:15:33;;;;;;;2.28;1.60;;;5.50;99.90;;;;;;5042518;28;20123;-93
2021/03/13 06:18:01;;;;;;;5.18;2.15;;;5.70;99.90;;;;;;5031437;28;20493;-93
2021/03/13 06:20:38;;;;;;;2.38;2.03;;;5.60;99.90;;;;;;5032766;28;20163;-94
2021/03/13 06:23:13;;;;;;;5.60;1.88;;;5.60;99.90;;;;;;5031270;28;20048;-93
2021/03/13 06:25:40;;;;;;;2.30;1.90;;;5.60;99.90;;;;;;5031946;28;20508;-92
2021/03/13 06:28:07;;;;;;;4.05;1.80;;;5.70;99.90;;;;;;5031212;28;20148;-92
2021/03/13 06:30:39;;;;;;;3.08;2.15;;;5.70;99.90;;;;;;5037977;28;20069;-91
2021/03/13 06:33:29;;;;;;;4.30;2.05;;;5.70;99.90;;;;;;5030575;28;20034;-94
2021/03/13 06:35:56;;;;;;;;;;;5.80;99.90;;;;;;5047425;28;20072;-92
2021/03/13 06:38:27;;;;;;;3.47;2.10;;;5.80;99.90;;;;;;5047422;28;20055;-93
2021/03/13 06:40:55;;;;;;;2.95;1.98;;;5.80;99.90;;;;;;5031964;28;20041;-90
2021/03/13 06:43:25;;;;;;;3.28;2.25;;;5.90;99.90;;;;;;5045077;28;20042;-92
2021/03/13 06:45:59;;;;;;;5.03;2.17;;;5.90;99.90;;;;;;5046736;28;20450;-90
2021/03/13 06:48:49;;;;;;;5.70;1.92;;;6.00;99.90;;;;;;5030738;28;20045;-91
2021/03/13 06:51:32;;;;;;;3.13;1.90;;;6.00;99.90;;;;;;5030034;28;20075;-91
2021/03/13 06:54:10;;;;;;;6.25;2.20;;;6.10;99.90;;;;;;5029432;28;20048;-92
2021/03/13 06:56:55;;;;;;;2.85;2.10;;;6.00;99.90;;;;;;5055226;28;20039;-91
2021/03/13 06:59:25;;;;;;;4.40;2.25;;;6.20;99.90;;;;;;5045803;28;20044;-92
2021/03/13 07:01:59;;;;;;;4.50;1.90;;;6.20;99.90;;;;;;5050594;28;20448;-90
2021/03/13 07:04:40;;;;;;;4.32;1.40;;;6.20;99.90;;;;;;5064796;28;20426;-92
2021/03/13 07:07:07;;;;;;;4.65;1.15;;;6.20;99.90;;;;;;5037980;28;20048;-92
2021/03/13 07:09:53;;;;;;;3.35;1.13;;;6.30;99.90;;;;;;5047816;28;20038;-91
2021/03/13 07:12:40;;;;;;;2.97;0.80;;;6.30;99.90;;;;;;5027088;28;20067;-91
2021/03/13 07:15:19;;;;;;;1.00;1.00;;;6.40;99.90;;;;;;5023391;28;20046;-91
2021/03/13 07:18:00;;;;;;;3.60;1.48;;;6.40;99.90;;;;;;5007657;28;20494;-92
2021/03/13 07:20:29;;;;;;;1.77;1.33;;;6.40;99.90;;;;;;5038864;28;20115;-92
2021/03/13 07:23:03;;;;;;;4.95;1.10;;;6.40;99.90;;;;;;5060795;28;20037;-92
2021/03/13 07:25:30;;;;;;;3.80;1.30;;;6.40;99.90;;;;;;5030962;28;20481;-92
2021/03/13 07:28:00;;;;;;;3.55;1.20;;;6.40;99.90;;;;;;5042321;28;20038;-91
2021/03/13 07:30:28;;;;;;;4.30;0.82;;;6.40;99.90;;;;;;5020891;28;20056;-91
2021/03/13 07:33:05;;;;;;;3.28;0.65;;;6.40;99.90;;;;;;5032620;28;20049;-90
2021/03/13 07:35:37;;;;;;;2.55;0.80;;;6.30;99.90;;;;;;5048219;28;20069;-93
2021/03/13 07:38:07;;;;;;;2.53;0.75;;;6.30;99.90;;;;;;5026799;28;20041;-93
2021/03/13 07:40:39;;;;;;;2.05;0.45;;;6.10;99.90;;;;;;5029608;28;20155;-93
2021/03/13 07:43:07;;;;;;;1.25;0.47;;;5.90;99.90;;;;;;5045958;28;20040;-92
2021/03/13 07:45:33;;;;;;;1.95;0.40;;;5.80;99.90;;;;;;5031331;28;20100;-92
2021/03/13 07:48:00;;;;;;;4.30;0.95;;;5.70;99.90;;;;;;5046409;28;20440;-91
2021/03/13 07:50:26;;;;;;;4.15;0.32;;;5.60;99.90;;;;;;5013562;28;20050;-92
2021/03/13 07:52:52;;;;;;;3.53;0.70;;;5.60;99.90;;;;;;5046328;28;20136;-94
2021/03/13 07:55:20;;;;;;;3.25;1.02;;;5.70;99.90;;;;;;5040943;28;20109;-91
2021/03/13 07:57:48;;;;;;;4.30;0.77;;;5.70;99.90;;;;;;5020376;28;20378;-90
2021/03/13 08:00:15;;;;;;;8.82;1.13;;;5.80;99.90;;;;;;5010109;28;20053;-93
2021/03/13 08:02:45;;;;;;;6.20;1.17;;;5.90;99.90;;;;;;5012550;28;20144;-92
2021/03/13 08:05:18;;;;;;;12.00;2.47;;;6.00;99.90;;;;;;5032525;28;20400;-90
2021/03/13 08:07:59;;;;;;;9.35;1.45;;;6.10;99.90;;;;;;5030330;28;20298;-92
2021/03/13 08:10:47;;;;;;;10.85;1.60;;;6.10;99.90;;;;;;5042139;28;20061;-93
2021/03/13 08:13:47;;;;;;;11.50;1.67;;;6.00;99.90;;;;;;5078093;28;20079;-92
2021/03/13 08:16:19;;;;;;;11.75;1.90;;;6.10;99.90;;;;;;5057336;28;20044;-90
2021/03/13 08:18:53;;;;;;;8.60;1.52;;;6.20;99.90;;;;;;5056145;28;20123;-91
2021/03/13 08:21:21;;;;;;;12.57;1.75;;;6.20;99.90;;;;;;5028811;28;20045;-91
2021/03/13 08:23:49;;;;;;;17.20;2.70;;;6.40;99.90;;;;;;5041773;28;20044;-90
2021/03/13 08:26:16;;;;;;;13.23;2.03;;;6.50;99.90;;;;;;5036833;28;20037;-92
2021/03/13 08:28:45;;;;;;;16.92;2.58;;;6.50;99.90;;;;;;5031106;28;20041;-91
2021/03/13 08:31:23;;;;;;;18.48;3.00;;;6.60;99.90;;;;;;5051847;28;20106;-91
2021/03/13 08:34:16;;;;;;;18.38;2.60;;;6.60;99.90;;;;;;5029655;28;20073;-91
2021/03/13 08:36:47;;;;;;;15.68;2.60;;;6.60;99.90;;;;;;5014762;28;20088;-89
2021/03/13 08:39:17;;;;;;;21.40;2.83;;;6.60;99.90;;;;;;5016841;28;20542;-92
2021/03/13 08:41:43;;;;;;;16.33;3.08;;;6.70;99.90;;;;;;5035548;28;20504;-91
2021/03/13 08:44:13;;;;;;;13.48;2.25;;;6.70;99.90;;;;;;5030585;28;20045;-89
2021/03/13 08:47:09;;;;;;;15.23;2.65;;;6.70;99.90;;;;;;5043408;28;20048;-92
2021/03/13 08:49:35;;;;;;;12.30;2.45;;;6.80;99.90;;;;;;5020343;28;20049;-91
2021/03/13 08:52:07;;;;;;;24.23;3.88;;;6.80;99.90;;;;;;5044440;28;20370;-92
2021/03/13 08:54:39;;;;;;;19.73;3.85;;;6.90;99.90;;;;;;5025905;28;20470;-88
2021/03/13 08:57:08;;;;;;;25.77;4.13;;;6.90;99.90;;;;;;5053512;28;20275;-89
2021/03/13 08:59:38;;;;;;;26.08;3.85;;;7.00;99.90;;;;;;5043687;28;20052;-89
2021/03/13 09:02:13;;;;;;;14.55;3.05;;;7.00;99.90;;;;;;5029840;28;20560;-90
2021/03/13 09:04:42;;;;;;;19.67;4.05;;;7.10;99.90;;;;;;5029453;28;20544;-89
2021/03/13 09:07:09;;;;;;;30.05;4.18;;;7.10;99.90;;;;;;5030812;28;20361;-88
2021/03/13 09:09:37;;;;;;;23.30;3.83;;;7.10;99.90;;;;;;5025894;28;20045;-89
2021/03/13 09:12:09;;;;;;;32.30;4.18;;;7.10;99.90;;;;;;5029360;28;20053;-89
2021/03/13 09:14:49;;;;;;;21.55;3.70;;;7.20;99.90;;;;;;5028827;28;20049;-90
2021/03/13 09:17:17;;;;;;;15.27;2.70;;;7.20;99.90;;;;;;5029222;28;20104;-89
2021/03/13 09:19:44;;;;;;;19.23;3.20;;;7.20;99.90;;;;;;5033710;28;20033;-89
2021/03/13 09:22:13;;;;;;;18.98;3.13;;;7.20;99.90;;;;;;5039445;28;20060;-88
2021/03/13 09:24:38;;;;;;;21.48;4.28;;;7.20;99.90;;;;;;5052231;28;20060;-90
2021/03/13 09:27:05;;;;;;;22.90;3.58;;;7.20;99.90;;;;;;5026436;28;20061;-90
2021/03/13 09:29:40;;;;;;;18.60;3.15;;;7.20;99.90;;;;;;5027319;28;20103;-92
2021/03/13 09:32:13;;;;;;;21.27;3.33;;;7.10;99.90;;;;;;5008560;28;20053;-90
2021/03/13 09:34:45;;;;;;;20.58;3.33;;;7.10;99.90;;;;;;5022825;28;20056;-90
2021/03/13 09:37:19;;;;;;;24.38;2.88;;;7.10;99.90;;;;;;5012030;28;20086;-90
2021/03/13 09:39:50;;;;;;;27.77;3.03;;;7.20;99.90;;;;;;5030124;28;20057;-91
2021/03/13 09:42:17;;;;;;;22.35;4.05;;;7.20;99.90;;;;;;5013451;28;20049;-91
2021/03/13 09:44:54;;;;;;;16.60;2.72;;;7.30;99.90;;;;;;5017756;28;20037;-91
2021/03/13 09:47:36;;;;;;;13.73;2.97;;;7.40;99.90;;;;;;5012494;28;20609;-91
2021/03/13 09:50:29;;;;;;;13.75;2.50;;;7.50;99.90;;;;;;5027545;28;20421;-88
2021/03/13 09:52:56;;;;;;;14.80;3.22;;;7.60;99.90;;;;;;5018993;28;20065;-90
2021/03/13 09:55:24;;;;;;;12.07;2.60;;;7.70;99.90;;;;;;5029976;28;20061;-90
2021/03/13 09:57:52;;;;;;;23.42;3.60;;;7.80;99.90;;;;;;5037103;28;20101;-89
2021/03/13 10:00:23;;;;;;;15.43;3.20;;;7.80;99.90;;;;;;5015459;28;20049;-91
2021/03/13 10:02:52;;;;;;;18.67;3.53;;;7.80;99.90;;;;;;5040885;28;20048;-89
2021/03/13 10:05:22;;;;;;;27.05;3.95;;;7.80;99.90;;;;;;5037363;28;20049;-91
2021/03/13 10:07:50;;;;;;;23.75;4.53;;;7.80;99.90;;;;;;5056000;28;20504;-92
2021/03/13 10:10:18;;;;;;;18.65;3.03;;;7.90;99.90;;;;;;5036032;28;20050;-90
2021/03/13 10:12:46;;;;;;;20.13;3.75;;;8.00;99.90;;;;;;5031873;28;20033;-91
2021/03/13 10:15:36;;;;;;;22.08;4.03;;;8.20;99.90;;;;;;5030900;28;20056;-91
2021/03/13 10:18:02;;;;;;;22.60;4.55;;;8.30;99.90;;;;;;5031518;28;20045;-89
2021/03/13 10:20:30;;;;;;;20.67;3.13;;;8.40;99.90;;;;;;5031045;28;20040;-92
2021/03/13 10:23:12;;;;;;;18.33;3.40;;;8.30;99.90;;;;;;5040653;28;20053;-91
2021/03/13 10:25:40;;;;;;;17.75;2.90;;;8.10;99.90;;;;;;5033295;28;20038;-90
2021/03/13 10:28:10;;;;;;;9.93;2.13;;;8.00;99.90;;;;;;5049374;28;20063;-90
2021/03/13 10:30:37;;;;;;;11.80;2.60;;;7.50;99.90;;;;;;5030389;28;20045;-92
2021/03/13 10:33:03;;;;;;;9.00;2.17;;;7.00;99.90;;;;;;5032003;28;20546;-90
2021/03/13 10:35:32;;;;;;;18.67;2.83;;;6.90;99.90;;;;;;5033617;28;20033;-93
2021/03/13 10:38:00;;;;;;;21.45;3.72;;;6.90;99.90;;;;;;5035722;28;20124;-90
2021/03/13 10:40:43;;;;;;;27.25;2.95;;;6.90;99.90;;;;;;5052323;28;20082;-90
2021/03/13 10:43:16;;;;;;;28.00;5.20;;;6.90;99.90;;;;;;5032290;28;20034;-89
2021/03/13 10:45:58;;;;;;;25.00;4.07;;;7.00;99.90;;;;;;5031630;28;20537;-92
2021/03/13 10:48:26;;;;;;;26.73;3.70;;;7.00;99.90;;;;;;5028166;28;20492;-92
2021/03/13 10:50:52;;;;;;;30.75;3.40;;;7.20;99.90;;;;;;5034057;28;20469;-92
2021/03/13 10:53:30;;;;;;;27.73;4.55;;;7.30;99.90;;;;;;5033178;28;20049;-90
2021/03/13 10:55:59;;;;;;;23.83;3.00;;;7.40;99.90;;;;;;5039428;28;20096;-90
2021/03/13 10:58:32;;;;;;;29.33;3.97;;;7.60;99.90;;;;;;5029337;28;20060;-91
2021/03/13 11:00:59;;;;;;;15.38;2.90;;;7.70;99.90;;;;;;5031279;28;20049;-88
2021/03/13 11:03:26;;;;;;;17.77;3.22;;;7.80;99.90;;;;;;5060685;28;20075;-89
2021/03/13 11:05:53;;;;;;;20.77;3.65;;;7.90;99.90;;;;;;5046246;28;20065;-90
2021/03/13 11:08:20;;;;;;;19.17;3.35;;;7.90;99.90;;;;;;5031426;28;20046;-91
2021/03/13 11:10:47;;;;;;;18.85;3.20;;;8.10;99.90;;;;;;5018231;28;20137;-89
2021/03/13 11:13:13;;;;;;;17.92;3.60;;;8.10;99.90;;;;;;5030336;28;20116;-91
2021/03/13 11:15:38;;;;;;;20.83;3.15;;;7.90;99.90;;;;;;5029134;28;20129;-89
2021/03/13 11:18:05;;;;;;;18.75;3.38;;;8.00;99.90;;;;;;5030062;28;20037;-91
2021/03/13 11:20:31;;;;;;;18.65;3.05;;;8.10;99.90;;;;;;5043909;28;20192;-90
2021/03/13 11:22:57;;;;;;;21.52;4.63;;;8.10;99.90;;;;;;5041276;28;20054;-90
2021/03/13 11:25:23;;;;;;;18.13;3.30;;;8.10;99.90;;;;;;5025120;28;20033;-89
2021/03/13 11:27:49;;;;;;;16.30;3.80;;;7.90;99.90;;;;;;5027296;28;21197;-92
2021/03/13 11:30:15;;;;;;;18.63;2.90;;;7.40;99.90;;;;;;5045341;28;20041;-90
2021/03/13 11:32:41;;;;;;;8.18;1.67;;;7.10;99.90;;;;;;5030556;28;20059;-90
2021/03/13 11:35:08;;;;;;;15.65;3.22;;;6.70;99.90;;;;;;5046759;28;20666;-89
2021/03/13 11:37:35;;;;;;;18.67;3.30;;;6.50;99.90;;;;;;5039807;28;21443;-90
2021/03/13 11:40:03;;;;;;;10.80;2.25;;;6.40;99.90;;;;;;5020126;28;20040;-89
2021/03/13 11:42:29;;;;;;;16.17;3.03;;;6.60;99.90;;;;;;5029312;28;20123;-88
2021/03/13 11:44:56;;;;;;;11.00;2.25;;;6.70;99.90;;;;;;5033138;28;20045;-89
2021/03/13 11:47:26;;;;;;;16.35;2.63;;;6.90;99.90;;;;;;5026412;28;20500;-87
2021/03/13 11:49:53;;;;;;;16.95;2.67;;;7.10;99.90;;;;;;5046661;28;20490;-90
2021/03/13 11:52:19;;;;;;;19.85;3.65;;;7.20;99.90;;;;;;5025928;28;20552;-90
2021/03/13 11:54:46;;;;;;;17.77;2.95;;;7.30;99.90;;;;;;5007699;28;20049;-91
2021/03/13 11:57:13;;;;;;;16.27;3.25;;;7.30;99.90;;;;;;5037249;28;20045;-89
2021/03/13 11:59:39;;;;;;;31.80;4.32;;;7.30;99.90;;;;;;5054201;28;20424;-90
2021/03/13 12:02:05;;;;;;;20.10;2.90;;;7.30;99.90;;;;;;5030579;28;20049;-89
2021/03/13 12:04:32;;;;;;;21.17;3.38;;;7.50;99.90;;;;;;5025822;28;20190;-89
2021/03/13 12:06:57;;;;;;;14.70;2.67;;;7.80;99.90;;;;;;5023320;28;20567;-89
2021/03/13 12:09:23;;;;;;;15.30;2.95;;;8.00;99.90;;;;;;5037895;28;20037;-88
2021/03/13 12:11:49;;;;;;;23.05;3.75;;;8.10;99.90;;;;;;5016406;28;20076;-90
2021/03/13 12:14:15;;;;;;;14.82;2.45;;;8.30;99.90;;;;;;5044801;28;20055;-88
2021/03/13 12:16:41;;;;;;;22.30;4.00;;;8.30;99.90;;;;;;5028406;28;20041;-91
2021/03/13 12:19:07;;;;;;;20.15;4.63;;;8.40;99.90;;;;;;5044956;28;20424;-89
2021/03/13 12:21:33;;;;;;;20.23;3.30;;;8.50;99.90;;;;;;5027870;28;20048;-91
2021/03/13 12:23:58;;;;;;;19.60;3.33;;;8.60;99.90;;;;;;5044982;28;20144;-89
2021/03/13 12:26:25;;;;;;;23.90;3.63;;;8.60;99.90;;;;;;5044116;28;20038;-89
2021/03/13 12:28:51;;;;;;;12.98;3.33;;;8.70;99.90;;;;;;5028132;28;20053;-90
2021/03/13 12:31:18;;;;;;;15.50;3.53;;;8.80;99.90;;;;;;5061013;28;20048;-88
2021/03/13 12:33:44;;;;;;;13.38;2.55;;;8.80;99.90;;;;;;5029799;28;20034;-91
2021/03/13 12:36:10;;;;;;;16.00;2.78;;;8.80;99.90;;;;;;5027991;28;20041;-90
2021/03/13 12:38:36;;;;;;;16.55;3.33;;;8.80;99.90;;;;;;5026927;28;20117;-89
2021/03/13 12:41:05;;;;;;;14.82;2.92;;;8.70;99.90;;;;;;5028209;28;20055;-92
2021/03/13 12:43:31;;;;;;;20.77;4.78;;;8.70;99.90;;;;;;5028626;28;20080;-88
2021/03/13 12:45:57;;;;;;;14.75;2.30;;;8.80;99.90;;;;;;5026080;28;20181;-89
2021/03/13 12:48:23;;;;;;;17.05;3.10;;;8.80;99.90;;;;;;5045535;28;20044;-90
2021/03/13 12:50:50;;;;;;;12.55;2.85;;;8.70;99.90;;;;;;5036373;28;20071;-88
2021/03/13 12:53:16;;;;;;;14.88;2.90;;;8.60;99.90;;;;;;5046136;28;20568;-88
2021/03/13 12:55:43;;;;;;;18.60;2.47;;;8.20;99.90;;;;;;5038753;28;20041;-89
2021/03/13 12:58:09;;;;;;;12.38;2.42;;;8.00;99.90;;;;;;5043858;28;20042;-88
2021/03/13 13:00:36;;;;;;;12.73;2.30;;;7.90;99.90;;;;;;5032942;28;20052;-88
2021/03/13 13:03:03;;;;;;;18.02;2.50;;;8.00;99.90;;;;;;5030550;28;20042;-90